Sequel — WDG4437 — position and weather

sailwx.info

Track history (hours):
 
Tides and Currents Weather Stations Pressure Air Temp Water Temp Dewpoint Dewpoint Depression Visibility Wind Speed Wind Dir Waves Ship Positions

Sequel

Owner: Big Dog Fish Company, BELLINGHAM, WA. More information available from US FCC via Universal Licensing System and Coast Guard Vessel Documentation Center.

Last reported at 2018-Jun-17 18:27 UTC. Time now 2018-Jun-17 22:21 UTC.
Position N 50°14' W 125°23'.

Length 19 m.

Type: Fishing. MMSI: 367536560.

Date/timePositionNaut miles runAvg speedWind from/ knotsBaromVisibWave heightAir tempDewpointWater temp
2018-Jun-17 18:27N 50°14' W 125°23'510.6
2018-Jun-17 18:00N 50°09' W 125°22'612.2
2018-Jun-17 17:28N 50°04' W 125°15'612.6
2018-Jun-17 16:59N 49°59' W 125°11'2 3.3
2018-Jun-17 16:25N 49°58' W 125°09'4 9.0
2018-Jun-17 15:59N 49°55' W 125°04'5 9.2
2018-Jun-17 15:27N 49°52' W 124°58'4 8.9
2018-Jun-17 15:00N 49°50' W 124°53'4 8.7
2018-Jun-17 14:30N 49°47' W 124°48'4 8.5
2018-Jun-17 13:59N 49°44' W 124°43'76 7.8
2018-Jun-17 04:16N 48°58' W 123°09'  
Track history (hours):
 
Tides and Currents Weather Stations Pressure Air Temp Water Temp Dewpoint Dewpoint Depression Visibility Wind Speed Wind Dir Waves Ship Positions

Sequel

Owner: Big Dog Fish Company, BELLINGHAM, WA. More information available from US FCC via Universal Licensing System and Coast Guard Vessel Documentation Center.

Last reported at 2018-Jun-17 18:27 UTC. Time now 2018-Jun-17 22:21 UTC.
Position N 50°14' W 125°23'.

Length 19 m.

Type: Fishing. MMSI: 367536560.

Date/timePositionNaut miles runAvg speedWind from/ knotsBaromVisibWave heightAir tempDewpointWater temp
2018-Jun-17 18:27N 50°14' W 125°23'510.6
2018-Jun-17 18:00N 50°09' W 125°22'612.2
2018-Jun-17 17:28N 50°04' W 125°15'612.6
2018-Jun-17 16:59N 49°59' W 125°11'2 3.3
2018-Jun-17 16:25N 49°58' W 125°09'4 9.0
2018-Jun-17 15:59N 49°55' W 125°04'5 9.2
2018-Jun-17 15:27N 49°52' W 124°58'4 8.9
2018-Jun-17 15:00N 49°50' W 124°53'4 8.7
2018-Jun-17 14:30N 49°47' W 124°48'4 8.5
2018-Jun-17 13:59N 49°44' W 124°43'76 7.8
2018-Jun-17 04:16N 48°58' W 123°09'  

Dump ship's entire track history